Meskill, Texas
Current Conditions -  °F | °C
As of 4:52 PM on Wednesday 17 Dec 2014 (Local Time) from KGLS Reporting Station
Scattered Clouds Scattered Clouds  
Wind Chill: 63°   Ceiling: Unl
Heat Index: 63°   Visibility: 10mi
Dew Point: 59°   Wind: 14mph
Humidity: 87%   Direction: 90°E
Pressure: 30.1"   Gusts: NA
Location:  29.3796°N, 94.9168°W
Report Text: KGLS 172252Z 09012KT 10SM SCT100 17/15 A3010 RMK AO1 SLP192 T01720150
Loading
Personal Weather Stations






























Interactive Weather Map New forecast layout! Learn more

10-Day Weather Forecast

Advertisements
Track Severe Weather on mobile